Time;durP1;ratioP1;P1;durP2;ratioP2;P2;SDS_P1;SDS_P2;PMS_P1;PMS_P2;Temp;Humidity;BMP_temperature;BMP_pressure;BME280_temperature;BME280_humidity;BME280_pressure;Samples;Min_cycle;Max_cycle;Signal;HPM_P1;HPM_P2
2021/12/14 00:02:11;;;;;;;33.80;10.60;;;;;;;;;;5055517;28;20017;-89
2021/12/14 00:04:37;;;;;;;31.58;10.40;;;;;;;;;;5055657;28;20554;-88
2021/12/14 00:07:08;;;;;;;23.20;8.48;;;;;;;;;;5055049;28;20120;-88
2021/12/14 00:09:36;;;;;;;30.20;10.90;;;;;;;;;;5055418;28;20071;-89
2021/12/14 00:17:17;;;;;;;41.35;14.45;;;;;;;;;;5050118;28;20040;-89
2021/12/14 00:19:43;;;;;;;42.97;17.00;;;;;;;;;;5070697;28;20031;-89
2021/12/14 00:22:37;;;;;;;38.00;14.75;;;;;;;;;;5054536;28;20012;-87
2021/12/14 00:25:00;;;;;;;32.22;12.93;;;;;;;;;;5055709;28;20037;-88
2021/12/14 00:27:27;;;;;;;32.92;13.00;;;;;;;;;;5054867;28;20028;-88
2021/12/14 00:29:55;;;;;;;23.42;10.48;;;;;;;;;;5055129;28;20469;-89
2021/12/14 00:32:24;;;;;;;31.23;10.23;;;;;;;;;;5054624;28;20064;-87
2021/12/14 00:34:52;;;;;;;30.90;10.27;;;;;;;;;;5056271;28;20528;-85
2021/12/14 00:37:27;;;;;;;29.42;10.32;;;;;;;;;;5038347;28;20033;-87
2021/12/14 00:39:55;;;;;;;27.17;9.43;;;;;;;;;;5054743;28;20107;-86
2021/12/14 00:42:21;;;;;;;22.08;10.00;;;;;;;;;;5055912;28;20092;-87
2021/12/14 00:44:48;;;;;;;18.60;8.88;;;;;;;;;;5054875;28;20035;-89
2021/12/14 00:47:15;;;;;;;25.95;10.18;;;;;;;;;;5054902;28;20475;-89
2021/12/14 00:49:41;;;;;;;27.85;10.90;;;;;;;;;;5054810;28;20024;-87
2021/12/14 00:52:08;;;;;;;26.63;9.95;;;;;;;;;;5054672;28;20027;-88
2021/12/14 00:54:35;;;;;;;27.63;11.20;;;;;;;;;;5054448;28;20118;-87
2021/12/14 00:57:02;;;;;;;23.25;10.50;;;;;;;;;;5054648;28;20036;-87
2021/12/14 00:59:28;;;;;;;30.50;9.95;;;;;;;;;;5054277;28;20743;-89
2021/12/14 01:01:57;;;;;;;38.13;13.82;;;;;;;;;;5049291;28;20025;-90
2021/12/14 01:04:34;;;;;;;36.60;13.35;;;;;;;;;;5052635;28;20021;-88
2021/12/14 01:07:01;;;;;;;48.50;14.65;;;;;;;;;;5054514;28;20025;-87
2021/12/14 01:09:29;;;;;;;36.95;13.25;;;;;;;;;;5056332;28;20743;-87
2021/12/14 01:12:01;;;;;;;25.23;11.35;;;;;;;;;;5053132;28;20057;-89
2021/12/14 01:15:12;;;;;;;31.27;10.57;;;;;;;;;;5054467;28;20044;-88
2021/12/14 01:17:54;;;;;;;38.80;10.68;;;;;;;;;;5039104;28;20088;-90
2021/12/14 01:20:21;;;;;;;24.38;10.07;;;;;;;;;;5047818;28;20104;-89
2021/12/14 01:22:58;;;;;;;27.00;10.00;;;;;;;;;;5053833;28;20471;-90
2021/12/14 01:25:28;;;;;;;24.20;9.07;;;;;;;;;;5053816;28;20076;-89
2021/12/14 01:27:56;;;;;;;27.00;9.52;;;;;;;;;;5053388;28;20090;-92
2021/12/14 01:30:30;;;;;;;21.13;9.60;;;;;;;;;;5052229;28;20463;-90
2021/12/14 01:33:00;;;;;;;32.47;11.05;;;;;;;;;;5053633;28;20024;-89
2021/12/14 01:35:29;;;;;;;32.55;10.75;;;;;;;;;;5053742;28;20028;-90
2021/12/14 01:38:32;;;;;;;26.13;10.23;;;;;;;;;;5052394;28;20029;-90
2021/12/14 01:41:01;;;;;;;20.70;9.80;;;;;;;;;;5053775;28;20051;-89
2021/12/14 01:43:39;;;;;;;30.83;11.32;;;;;;;;;;5053050;28;20467;-90
2021/12/14 01:46:19;;;;;;;31.52;11.43;;;;;;;;;;5052838;28;20111;-91
2021/12/14 01:48:46;;;;;;;32.47;11.40;;;;;;;;;;5034225;28;20048;-89
2021/12/14 01:51:13;;;;;;;32.15;13.25;;;;;;;;;;5049705;28;20044;-90
2021/12/14 01:53:40;;;;;;;32.47;12.60;;;;;;;;;;4702780;28;9999910;-90
2021/12/14 01:56:08;;;;;;;32.10;13.15;;;;;;;;;;5053195;28;20045;-89
2021/12/14 01:58:57;;;;;;;36.28;13.48;;;;;;;;;;5053461;28;20379;-89
2021/12/14 02:01:24;;;;;;;41.65;16.73;;;;;;;;;;5053080;28;20025;-90
2021/12/14 02:03:54;;;;;;;43.25;16.50;;;;;;;;;;5053540;28;20013;-90
2021/12/14 02:06:23;;;;;;;37.83;14.43;;;;;;;;;;5051485;28;20410;-90
2021/12/14 02:08:54;;;;;;;29.73;13.02;;;;;;;;;;5052260;28;20020;-90
2021/12/14 02:11:20;;;;;;;35.30;13.95;;;;;;;;;;5053414;28;20044;-89
2021/12/14 02:13:48;;;;;;;39.72;13.75;;;;;;;;;;5050988;28;20053;-89
2021/12/14 02:16:16;;;;;;;34.95;14.43;;;;;;;;;;5054532;28;20017;-90
2021/12/14 02:18:44;;;;;;;38.08;15.98;;;;;;;;;;5053167;28;20031;-89
2021/12/14 02:21:12;;;;;;;51.22;19.52;;;;;;;;;;5053065;28;20455;-90
2021/12/14 02:23:40;;;;;;;51.70;21.05;;;;;;;;;;5053014;28;20471;-89
2021/12/14 02:26:08;;;;;;;52.97;21.15;;;;;;;;;;5036417;28;20068;-90
2021/12/14 02:28:34;;;;;;;56.78;23.58;;;;;;;;;;5053139;28;20051;-90
2021/12/14 02:31:01;;;;;;;60.78;21.40;;;;;;;;;;5053343;28;20021;-89
2021/12/14 02:33:32;;;;;;;55.60;21.13;;;;;;;;;;5053124;28;20028;-89
2021/12/14 02:35:59;;;;;;;47.22;18.20;;;;;;;;;;5052699;28;20119;-89
2021/12/14 02:38:26;;;;;;;41.35;16.42;;;;;;;;;;5052818;28;20035;-89
2021/12/14 02:41:05;;;;;;;33.70;15.40;;;;;;;;;;5052015;28;20020;-89
2021/12/14 02:43:34;;;;;;;39.67;15.35;;;;;;;;;;5052545;28;20017;-90
2021/12/14 02:46:02;;;;;;;33.95;15.48;;;;;;;;;;5052991;28;20116;-90
2021/12/14 02:48:29;;;;;;;36.10;15.32;;;;;;;;;;5046227;28;20095;-89
2021/12/14 02:50:55;;;;;;;42.40;16.30;;;;;;;;;;5069162;28;20033;-88
2021/12/14 02:53:21;;;;;;;37.13;15.90;;;;;;;;;;5053119;28;20122;-89
2021/12/14 02:55:51;;;;;;;41.40;16.25;;;;;;;;;;5050440;28;20052;-89
2021/12/14 02:58:17;;;;;;;44.20;15.93;;;;;;;;;;5051912;28;20533;-89
2021/12/14 03:00:48;;;;;;;38.35;16.17;;;;;;;;;;5052071;28;20024;-88
2021/12/14 03:03:17;;;;;;;37.30;16.48;;;;;;;;;;5052507;28;20131;-89
2021/12/14 03:05:46;;;;;;;32.33;14.05;;;;;;;;;;5052538;28;20025;-88
2021/12/14 03:08:15;;;;;;;39.63;15.90;;;;;;;;;;5052526;28;20346;-90
2021/12/14 03:10:59;;;;;;;49.17;16.88;;;;;;;;;;5051904;28;20053;-90
2021/12/14 03:13:30;;;;;;;43.40;17.80;;;;;;;;;;5067635;28;20068;-90
2021/12/14 03:15:57;;;;;;;43.95;17.73;;;;;;;;;;5053627;28;20028;-89
2021/12/14 03:18:26;;;;;;;47.88;18.65;;;;;;;;;;5068816;28;20082;-90
2021/12/14 03:20:55;;;;;;;44.88;17.10;;;;;;;;;;5053502;28;20017;-89
2021/12/14 03:23:27;;;;;;;41.92;16.50;;;;;;;;;;5052789;28;20426;-89
2021/12/14 03:25:56;;;;;;;33.17;16.55;;;;;;;;;;5055914;28;20027;-89
2021/12/14 03:28:23;;;;;;;47.05;18.52;;;;;;;;;;5056160;28;20112;-90
2021/12/14 03:30:52;;;;;;;48.75;18.77;;;;;;;;;;5055577;28;20035;-89
2021/12/14 03:33:22;;;;;;;48.60;21.20;;;;;;;;;;5075223;28;20537;-90
2021/12/14 03:36:07;;;;;;;53.00;23.38;;;;;;;;;;5064071;28;20123;-90
2021/12/14 03:38:37;;;;;;;55.13;20.77;;;;;;;;;;5056276;28;20025;-90
2021/12/14 03:41:24;;;;;;;53.78;21.65;;;;;;;;;;5060030;28;20025;-90
2021/12/14 03:43:59;;;;;;;51.75;21.33;;;;;;;;;;5055307;28;20114;-89
2021/12/14 03:46:27;;;;;;;50.20;21.27;;;;;;;;;;5056586;28;20028;-89
2021/12/14 03:48:54;;;;;;;44.13;18.45;;;;;;;;;;5060215;28;20071;-91
2021/12/14 03:51:21;;;;;;;42.58;18.38;;;;;;;;;;5067250;28;20021;-90
2021/12/14 03:53:50;;;;;;;51.90;20.10;;;;;;;;;;5056868;28;20025;-89
2021/12/14 03:56:26;;;;;;;44.33;17.00;;;;;;;;;;5055552;28;20037;-89
2021/12/14 03:58:53;;;;;;;42.53;18.27;;;;;;;;;;5055453;28;20471;-90
2021/12/14 04:01:21;;;;;;;40.13;17.15;;;;;;;;;;5058324;28;20017;-89
2021/12/14 04:03:49;;;;;;;46.00;18.92;;;;;;;;;;5068893;28;20025;-90
2021/12/14 04:06:16;;;;;;;53.08;19.58;;;;;;;;;;5055585;28;20029;-89
2021/12/14 04:08:42;;;;;;;45.45;17.92;;;;;;;;;;5055525;28;20031;-89
2021/12/14 04:11:10;;;;;;;38.05;18.20;;;;;;;;;;5057504;28;20013;-89
2021/12/14 04:13:39;;;;;;;45.42;19.05;;;;;;;;;;5055468;28;20069;-89
2021/12/14 04:16:06;;;;;;;50.70;19.15;;;;;;;;;;5057681;28;20032;-90
2021/12/14 04:18:32;;;;;;;56.38;22.40;;;;;;;;;;5055629;28;20052;-89
2021/12/14 04:21:00;;;;;;;49.53;21.40;;;;;;;;;;5056819;28;20021;-90
2021/12/14 04:23:31;;;;;;;49.58;19.88;;;;;;;;;;5064977;28;20089;-89
2021/12/14 04:25:59;;;;;;;45.20;18.77;;;;;;;;;;5086703;28;20021;-89
2021/12/14 04:28:28;;;;;;;50.20;19.58;;;;;;;;;;5054938;28;20435;-91
2021/12/14 04:30:54;;;;;;;45.15;17.60;;;;;;;;;;5044828;28;20108;-90
2021/12/14 04:33:27;;;;;;;48.75;19.33;;;;;;;;;;5043370;28;20025;-89
2021/12/14 04:35:54;;;;;;;50.40;18.83;;;;;;;;;;5046090;28;20094;-90
2021/12/14 04:38:26;;;;;;;46.63;18.65;;;;;;;;;;5042671;28;20018;-90
2021/12/14 04:52:04;;;;;;;52.30;20.70;;;;;;;;;;5045262;28;20093;-91
2021/12/14 04:54:38;;;;;;;59.03;20.75;;;;;;;;;;5047120;28;20028;-91
2021/12/14 04:57:07;;;;;;;45.85;18.10;;;;;;;;;;5044756;28;20033;-89
2021/12/14 04:59:34;;;;;;;55.92;20.85;;;;;;;;;;5055122;28;20025;-89
2021/12/14 05:02:08;;;;;;;48.20;20.55;;;;;;;;;;5054321;28;20020;-91
2021/12/14 05:04:34;;;;;;;48.30;18.55;;;;;;;;;;5055495;28;20096;-90
2021/12/14 05:07:26;;;;;;;53.05;21.10;;;;;;;;;;5054442;28;20021;-86
2021/12/14 05:09:50;;;;;;;51.70;22.10;;;;;;;;;;5056004;28;20021;-85
2021/12/14 05:12:18;;;;;;;46.88;19.70;;;;;;;;;;5053516;28;20079;-85
2021/12/14 05:14:46;;;;;;;56.60;23.27;;;;;;;;;;5056696;28;20024;-85
2021/12/14 05:17:16;;;;;;;60.33;20.42;;;;;;;;;;5066959;28;20108;-88
2021/12/14 05:19:47;;;;;;;44.85;19.02;;;;;;;;;;5054333;28;20017;-89
2021/12/14 05:22:16;;;;;;;46.40;18.50;;;;;;;;;;5054078;28;20016;-89
2021/12/14 05:24:45;;;;;;;36.58;16.27;;;;;;;;;;5054158;28;20021;-90
2021/12/14 05:27:15;;;;;;;45.20;17.00;;;;;;;;;;5054269;28;20116;-89
2021/12/14 05:29:41;;;;;;;45.60;18.48;;;;;;;;;;5054214;28;20086;-89
2021/12/14 05:32:09;;;;;;;48.28;20.40;;;;;;;;;;5053762;28;20029;-89
2021/12/14 05:34:36;;;;;;;55.58;22.15;;;;;;;;;;5054094;28;20104;-88
2021/12/14 05:37:03;;;;;;;48.35;21.05;;;;;;;;;;5055049;28;20044;-88
2021/12/14 05:45:03;;;;;;;49.15;19.58;;;;;;;;;;5053904;28;20039;-88
2021/12/14 05:47:30;;;;;;;40.72;17.20;;;;;;;;;;5045548;28;20024;-89
2021/12/14 05:49:56;;;;;;;48.33;19.17;;;;;;;;;;4700420;28;9999745;-88
2021/12/14 05:52:24;;;;;;;45.42;17.45;;;;;;;;;;5053507;28;20371;-88
2021/12/14 05:54:53;;;;;;;59.92;20.63;;;;;;;;;;5055181;28;20498;-88
2021/12/14 05:57:20;;;;;;;49.35;20.80;;;;;;;;;;5053307;28;20128;-88
2021/12/14 05:59:50;;;;;;;53.05;21.02;;;;;;;;;;5053321;28;20020;-88
2021/12/14 06:02:19;;;;;;;46.60;20.25;;;;;;;;;;5054389;28;20044;-89
2021/12/14 06:04:49;;;;;;;53.03;19.55;;;;;;;;;;5053521;28;20021;-88
2021/12/14 06:07:16;;;;;;;48.00;19.15;;;;;;;;;;5053987;28;20050;-88
2021/12/14 06:09:44;;;;;;;53.83;20.35;;;;;;;;;;5053157;28;20020;-88
2021/12/14 06:12:13;;;;;;;59.60;19.63;;;;;;;;;;5052826;28;20472;-89
2021/12/14 06:14:50;;;;;;;49.58;18.25;;;;;;;;;;5054268;28;20174;-88
2021/12/14 06:17:29;;;;;;;44.33;17.15;;;;;;;;;;5053038;28;20037;-88
2021/12/14 06:20:04;;;;;;;49.22;16.67;;;;;;;;;;5052948;28;20043;-88
2021/12/14 06:22:31;;;;;;;43.63;16.98;;;;;;;;;;5050825;28;20021;-88
2021/12/14 06:24:58;;;;;;;39.85;16.92;;;;;;;;;;5043223;28;20040;-87
2021/12/14 06:27:27;;;;;;;39.03;15.93;;;;;;;;;;5053250;28;20075;-88
2021/12/14 06:29:55;;;;;;;35.70;16.77;;;;;;;;;;5053162;28;20052;-88
2021/12/14 06:32:23;;;;;;;43.05;17.35;;;;;;;;;;5062046;28;20024;-88
2021/12/14 06:34:54;;;;;;;32.38;14.35;;;;;;;;;;5056113;28;20052;-88
2021/12/14 06:40:01;;;;;;;35.78;13.13;;;;;;;;;;5053820;28;20455;-88
2021/12/14 06:42:29;;;;;;;31.70;14.48;;;;;;;;;;5052239;28;20116;-86
2021/12/14 06:45:24;;;;;;;37.53;13.82;;;;;;;;;;5052485;28;20487;-87
2021/12/14 06:47:53;;;;;;;37.47;14.32;;;;;;;;;;5040500;28;20044;-88
2021/12/14 06:50:25;;;;;;;30.88;13.57;;;;;;;;;;5052807;28;20023;-88
2021/12/14 06:52:55;;;;;;;38.17;14.75;;;;;;;;;;5055598;28;20524;-88
2021/12/14 06:55:24;;;;;;;37.05;15.25;;;;;;;;;;5052072;28;20114;-88
2021/12/14 06:57:51;;;;;;;41.50;14.35;;;;;;;;;;5067402;28;20075;-89
2021/12/14 07:00:18;;;;;;;32.70;14.63;;;;;;;;;;5054494;28;20028;-89
2021/12/14 07:02:49;;;;;;;35.72;14.40;;;;;;;;;;5056028;28;20044;-88
2021/12/14 07:05:22;;;;;;;38.72;15.15;;;;;;;;;;5063828;28;20450;-89
2021/12/14 07:07:48;;;;;;;41.42;15.32;;;;;;;;;;5056856;28;20021;-90
2021/12/14 07:10:15;;;;;;;36.17;15.73;;;;;;;;;;5056280;28;20332;-89
2021/12/14 07:12:42;;;;;;;45.38;16.30;;;;;;;;;;5056175;28;20044;-90
2021/12/14 07:15:11;;;;;;;45.78;18.17;;;;;;;;;;5054572;28;20502;-90
2021/12/14 07:17:44;;;;;;;39.17;17.63;;;;;;;;;;5055527;28;20493;-89
2021/12/14 07:20:25;;;;;;;44.63;15.80;;;;;;;;;;5056332;28;20020;-89
2021/12/14 07:22:53;;;;;;;57.92;17.52;;;;;;;;;;5057131;28;20052;-89
2021/12/14 07:25:25;;;;;;;33.08;14.25;;;;;;;;;;5056297;28;20020;-89
2021/12/14 07:27:53;;;;;;;32.35;14.65;;;;;;;;;;5052539;28;20018;-89
2021/12/14 07:30:22;;;;;;;36.92;15.27;;;;;;;;;;5045326;28;20025;-89
2021/12/14 07:33:15;;;;;;;43.63;16.35;;;;;;;;;;5059628;28;20339;-88
2021/12/14 07:35:41;;;;;;;42.83;17.63;;;;;;;;;;5055699;28;20048;-89
2021/12/14 07:38:11;;;;;;;39.47;16.05;;;;;;;;;;5055830;28;20052;-89
2021/12/14 07:40:40;;;;;;;45.20;16.88;;;;;;;;;;5055932;28;20043;-89
2021/12/14 07:43:27;;;;;;;40.30;16.38;;;;;;;;;;5055836;28;20475;-88
2021/12/14 07:45:55;;;;;;;39.67;17.00;;;;;;;;;;5055815;28;20036;-89
2021/12/14 07:48:24;;;;;;;49.47;18.67;;;;;;;;;;5055738;28;20086;-89
2021/12/14 07:50:53;;;;;;;42.63;17.55;;;;;;;;;;5056119;28;20402;-89
2021/12/14 07:53:33;;;;;;;50.33;20.90;;;;;;;;;;5066247;28;20016;-89
2021/12/14 07:55:59;;;;;;;49.88;20.70;;;;;;;;;;5054089;28;20086;-89
2021/12/14 07:58:34;;;;;;;49.90;20.92;;;;;;;;;;5056044;28;20442;-89
2021/12/14 08:01:01;;;;;;;43.17;17.73;;;;;;;;;;5059134;28;20044;-90
2021/12/14 08:03:33;;;;;;;49.25;19.30;;;;;;;;;;5057167;28;20070;-88
2021/12/14 08:06:00;;;;;;;50.08;19.42;;;;;;;;;;5055702;28;20100;-86
2021/12/14 08:08:43;;;;;;;42.05;18.90;;;;;;;;;;5055857;28;20048;-87
2021/12/14 08:11:57;;;;;;;50.10;19.27;;;;;;;;;;5035051;28;20462;-87
2021/12/14 08:14:04;;;;;;;50.42;20.83;;;;;;;;;;5032526;28;20049;-85
2021/12/14 08:16:44;;;;;;;49.35;18.05;;;;;;;;;;5052536;28;20484;-87
2021/12/14 08:19:26;;;;;;;51.10;19.10;;;;;;;;;;5035965;28;20030;-86
2021/12/14 08:21:52;;;;;;;51.60;20.75;;;;;;;;;;5062385;28;20035;-88
2021/12/14 08:24:19;;;;;;;51.58;20.65;;;;;;;;;;5074202;28;20107;-87
2021/12/14 08:26:48;;;;;;;45.05;20.23;;;;;;;;;;5055552;28;20451;-87
2021/12/14 08:29:14;;;;;;;58.65;22.20;;;;;;;;;;5055273;28;20024;-87
2021/12/14 08:31:46;;;;;;;46.63;22.33;;;;;;;;;;5055717;28;20030;-88
2021/12/14 08:34:14;;;;;;;61.63;24.67;;;;;;;;;;5055017;28;20021;-88
2021/12/14 08:36:44;;;;;;;53.63;23.50;;;;;;;;;;5055184;28;20059;-88
2021/12/14 08:39:18;;;;;;;52.55;22.88;;;;;;;;;;5055446;28;20013;-87
2021/12/14 08:41:51;;;;;;;52.42;22.08;;;;;;;;;;5056613;28;20044;-87
2021/12/14 08:44:21;;;;;;;40.25;17.63;;;;;;;;;;5054930;28;20021;-87
2021/12/14 08:46:51;;;;;;;40.75;17.40;;;;;;;;;;5049582;28;20025;-88
2021/12/14 08:49:19;;;;;;;45.72;18.00;;;;;;;;;;5055239;28;20066;-88
2021/12/14 08:51:46;;;;;;;52.35;21.25;;;;;;;;;;5067123;28;20067;-90
2021/12/14 08:54:21;;;;;;;49.97;19.83;;;;;;;;;;5055797;28;20009;-89
2021/12/14 08:57:14;;;;;;;51.90;20.25;;;;;;;;;;5054617;28;20043;-90
2021/12/14 08:59:45;;;;;;;46.47;21.33;;;;;;;;;;5053642;28;20037;-89
2021/12/14 09:02:14;;;;;;;48.45;20.23;;;;;;;;;;5055706;28;20066;-90
2021/12/14 09:04:44;;;;;;;47.63;19.42;;;;;;;;;;5054779;28;20024;-89
2021/12/14 09:07:12;;;;;;;58.88;23.23;;;;;;;;;;5054505;28;20044;-89
2021/12/14 09:09:38;;;;;;;43.17;21.73;;;;;;;;;;5054434;28;20025;-90
2021/12/14 09:12:13;;;;;;;47.55;21.42;;;;;;;;;;5053454;28;20041;-89
2021/12/14 09:14:40;;;;;;;54.78;21.67;;;;;;;;;;5054386;28;20037;-89
2021/12/14 09:17:07;;;;;;;52.50;22.45;;;;;;;;;;5054348;28;20017;-89
2021/12/14 09:19:42;;;;;;;74.20;23.70;;;;;;;;;;5054333;28;20009;-90
2021/12/14 09:22:11;;;;;;;62.53;22.73;;;;;;;;;;5053699;28;20443;-90
2021/12/14 09:24:38;;;;;;;61.15;23.05;;;;;;;;;;5060516;28;20016;-89
2021/12/14 09:27:06;;;;;;;58.22;23.02;;;;;;;;;;5053632;28;20020;-88
2021/12/14 09:29:33;;;;;;;50.38;20.70;;;;;;;;;;5053951;28;20016;-89
2021/12/14 09:32:01;;;;;;;48.22;20.23;;;;;;;;;;5053913;28;20519;-90
2021/12/14 09:34:31;;;;;;;46.83;20.00;;;;;;;;;;5052898;28;20047;-89
2021/12/14 09:36:59;;;;;;;39.83;18.13;;;;;;;;;;5051866;28;20037;-88
2021/12/14 09:39:31;;;;;;;56.83;24.63;;;;;;;;;;5053206;28;20100;-87
2021/12/14 09:42:00;;;;;;;76.78;30.67;;;;;;;;;;5053757;28;20077;-87
2021/12/14 09:44:28;;;;;;;109.45;48.78;;;;;;;;;;5054279;28;20502;-88
2021/12/14 09:46:55;;;;;;;156.93;66.97;;;;;;;;;;5053646;28;20471;-87
2021/12/14 09:49:22;;;;;;;134.40;60.47;;;;;;;;;;5053241;28;20017;-87
2021/12/14 09:51:54;;;;;;;144.70;67.18;;;;;;;;;;5052569;28;20020;-89
2021/12/14 09:54:22;;;;;;;157.30;72.88;;;;;;;;;;5052644;28;20012;-88
2021/12/14 09:56:51;;;;;;;172.88;75.95;;;;;;;;;;5047875;28;20025;-89
2021/12/14 09:59:17;;;;;;;181.93;79.43;;;;;;;;;;5065805;28;20025;-89
2021/12/14 10:01:47;;;;;;;176.50;78.20;;;;;;;;;;5052226;28;20025;-89
2021/12/14 10:04:16;;;;;;;183.63;81.70;;;;;;;;;;5050811;28;20018;-88
2021/12/14 10:06:42;;;;;;;171.38;77.22;;;;;;;;;;5051780;28;20024;-88
2021/12/14 10:09:11;;;;;;;195.73;85.38;;;;;;;;;;5051723;28;20083;-89
2021/12/14 10:12:48;;;;;;;190.35;82.50;;;;;;;;;;5050528;28;20013;-89
2021/12/14 10:14:31;;;;;;;206.57;90.07;;;;;;;;;;5046622;28;20037;-91
2021/12/14 10:16:58;;;;;;;208.02;93.18;;;;;;;;;;5051272;28;20044;-90
2021/12/14 10:19:26;;;;;;;192.20;89.80;;;;;;;;;;5061435;28;20027;-88
2021/12/14 10:21:55;;;;;;;192.60;91.35;;;;;;;;;;5052313;28;20023;-88
2021/12/14 10:24:22;;;;;;;199.90;94.30;;;;;;;;;;5047916;28;20022;-91
2021/12/14 10:26:51;;;;;;;215.02;98.88;;;;;;;;;;5063170;28;20035;-88
2021/12/14 10:29:18;;;;;;;213.88;102.18;;;;;;;;;;5053164;28;20013;-88
2021/12/14 10:32:11;;;;;;;236.25;113.60;;;;;;;;;;5052783;28;20078;-90
2021/12/14 10:34:40;;;;;;;234.77;112.20;;;;;;;;;;5043340;28;20341;-88
2021/12/14 10:37:17;;;;;;;260.73;119.00;;;;;;;;;;5050225;28;20059;-90
2021/12/14 10:43:04;;;;;;;264.80;122.68;;;;;;;;;;5053785;28;20482;-89
2021/12/14 10:45:30;;;;;;;252.45;119.03;;;;;;;;;;5053527;28;20383;-89
2021/12/14 10:47:58;;;;;;;261.50;121.80;;;;;;;;;;5054004;28;20448;-89
2021/12/14 10:50:31;;;;;;;252.45;116.15;;;;;;;;;;5052994;28;20067;-88
2021/12/14 10:52:58;;;;;;;237.93;114.40;;;;;;;;;;5052949;28;20067;-88
2021/12/14 10:55:26;;;;;;;233.32;111.75;;;;;;;;;;5052264;28;20071;-87
2021/12/14 10:57:53;;;;;;;242.38;112.30;;;;;;;;;;5052961;28;20035;-88
2021/12/14 11:00:29;;;;;;;260.08;121.57;;;;;;;;;;5052946;28;20013;-87
2021/12/14 11:03:00;;;;;;;244.63;112.68;;;;;;;;;;5053211;28;20025;-88
2021/12/14 11:05:27;;;;;;;255.05;118.40;;;;;;;;;;5053188;28;20108;-87
2021/12/14 11:07:54;;;;;;;260.98;116.93;;;;;;;;;;5053923;28;20021;-87
2021/12/14 11:10:40;;;;;;;279.58;124.75;;;;;;;;;;5051321;28;20021;-87
2021/12/14 11:13:09;;;;;;;294.92;132.32;;;;;;;;;;5052488;28;20048;-86
2021/12/14 11:15:37;;;;;;;300.52;135.93;;;;;;;;;;5052358;28;20017;-88
2021/12/14 11:18:10;;;;;;;299.83;135.18;;;;;;;;;;5053107;28;20048;-88
2021/12/14 11:20:46;;;;;;;322.20;142.65;;;;;;;;;;5050012;28;20048;-88
2021/12/14 11:23:15;;;;;;;316.50;139.93;;;;;;;;;;5048861;28;20486;-88
2021/12/14 11:25:57;;;;;;;291.52;130.82;;;;;;;;;;5049357;28;20025;-88
2021/12/14 11:28:31;;;;;;;305.50;136.63;;;;;;;;;;5049322;28;20072;-88
2021/12/14 11:31:05;;;;;;;338.40;142.43;;;;;;;;;;5048778;28;20475;-88
2021/12/14 11:33:33;;;;;;;305.30;139.20;;;;;;;;;;5067524;28;20336;-89
2021/12/14 11:36:00;;;;;;;331.50;149.50;;;;;;;;;;5056792;28;20497;-89
2021/12/14 11:38:38;;;;;;;333.40;153.95;;;;;;;;;;5052248;28;20463;-87
2021/12/14 11:41:22;;;;;;;354.02;156.93;;;;;;;;;;5052563;28;20107;-88
2021/12/14 11:43:55;;;;;;;375.85;168.45;;;;;;;;;;5051103;28;20025;-89
2021/12/14 11:46:22;;;;;;;368.08;165.98;;;;;;;;;;5036270;28;20025;-91
2021/12/14 11:48:48;;;;;;;389.92;173.65;;;;;;;;;;5049644;28;20418;-88
2021/12/14 11:51:14;;;;;;;363.05;164.10;;;;;;;;;;5053372;28;20025;-87
2021/12/14 11:53:48;;;;;;;377.35;165.30;;;;;;;;;;5055944;28;20025;-87
2021/12/14 11:56:17;;;;;;;370.42;163.30;;;;;;;;;;5056767;28;20478;-90
2021/12/14 11:58:45;;;;;;;384.98;175.23;;;;;;;;;;5055570;28;20430;-89
2021/12/14 12:01:27;;;;;;;385.77;170.40;;;;;;;;;;5055686;28;20021;-89
2021/12/14 12:03:56;;;;;;;403.42;180.77;;;;;;;;;;5057472;28;20537;-90
2021/12/14 12:12:06;;;;;;;439.42;197.73;;;;;;;;;;5007604;28;20042;-89
2021/12/14 12:14:38;;;;;;;447.23;202.25;;;;;;;;;;5053887;28;20025;-87
2021/12/14 12:17:20;;;;;;;447.15;206.90;;;;;;;;;;5054251;28;20451;-88
2021/12/14 12:19:57;;;;;;;433.35;205.80;;;;;;;;;;5053984;28;20021;-89
2021/12/14 12:22:23;;;;;;;467.45;221.75;;;;;;;;;;5052922;28;20493;-89
2021/12/14 12:24:52;;;;;;;462.88;224.25;;;;;;;;;;5047791;28;20041;-88
2021/12/14 12:27:24;;;;;;;488.88;229.05;;;;;;;;;;5049562;28;20032;-88
2021/12/14 12:30:09;;;;;;;467.95;213.77;;;;;;;;;;5053980;28;20052;-88
2021/12/14 12:32:36;;;;;;;446.80;206.45;;;;;;;;;;5050746;28;20033;-87
2021/12/14 12:35:03;;;;;;;469.30;209.65;;;;;;;;;;5054596;28;20029;-88
2021/12/14 12:37:40;;;;;;;459.02;213.80;;;;;;;;;;5047797;28;20113;-87
2021/12/14 12:40:09;;;;;;;457.75;210.50;;;;;;;;;;5053114;28;20029;-88
2021/12/14 12:42:36;;;;;;;413.05;195.10;;;;;;;;;;5050687;28;20025;-88
2021/12/14 12:45:04;;;;;;;414.50;195.15;;;;;;;;;;5061593;28;20063;-87
2021/12/14 12:47:32;;;;;;;448.50;202.90;;;;;;;;;;5053998;28;20024;-88
2021/12/14 12:50:00;;;;;;;443.92;204.43;;;;;;;;;;5054301;28;20771;-88
2021/12/14 12:52:31;;;;;;;418.95;196.63;;;;;;;;;;5054872;28;20017;-88
2021/12/14 12:55:02;;;;;;;404.50;191.10;;;;;;;;;;5054905;28;20075;-88
2021/12/14 12:57:54;;;;;;;399.73;188.95;;;;;;;;;;5050093;28;20494;-87
2021/12/14 13:00:30;;;;;;;397.25;179.98;;;;;;;;;;5052844;28;20025;-88
2021/12/14 13:03:07;;;;;;;376.42;178.32;;;;;;;;;;5070668;28;20116;-88
2021/12/14 13:05:37;;;;;;;393.23;181.57;;;;;;;;;;5047935;28;20035;-89
2021/12/14 13:08:09;;;;;;;387.38;179.90;;;;;;;;;;5053702;28;20017;-88
2021/12/14 13:10:45;;;;;;;394.25;178.43;;;;;;;;;;5057757;28;20024;-88
2021/12/14 13:13:14;;;;;;;422.55;192.55;;;;;;;;;;5058477;28;20131;-88
2021/12/14 13:15:44;;;;;;;402.13;192.13;;;;;;;;;;5056350;28;20017;-89
2021/12/14 13:18:22;;;;;;;416.23;188.38;;;;;;;;;;5053399;28;20111;-88
2021/12/14 13:20:52;;;;;;;395.60;181.68;;;;;;;;;;5057149;28;20075;-89
2021/12/14 13:23:23;;;;;;;390.88;191.02;;;;;;;;;;5053659;28;20116;-88
2021/12/14 13:25:50;;;;;;;382.20;182.35;;;;;;;;;;5053938;28;20036;-89
2021/12/14 13:28:16;;;;;;;419.65;199.45;;;;;;;;;;5066191;28;20017;-89
2021/12/14 13:30:44;;;;;;;447.23;209.98;;;;;;;;;;5057069;28;20017;-89
2021/12/14 13:33:27;;;;;;;447.15;204.43;;;;;;;;;;5052050;28;20036;-88
2021/12/14 13:35:57;;;;;;;419.55;198.43;;;;;;;;;;5051631;28;20111;-88
2021/12/14 13:38:23;;;;;;;409.15;192.85;;;;;;;;;;5052325;28;20444;-89
2021/12/14 13:40:50;;;;;;;381.60;173.98;;;;;;;;;;5054360;28;20486;-89
2021/12/14 13:43:20;;;;;;;357.58;160.07;;;;;;;;;;5053285;28;20017;-87
2021/12/14 13:45:48;;;;;;;342.90;152.40;;;;;;;;;;5053267;28;20340;-89
2021/12/14 13:48:18;;;;;;;334.17;150.40;;;;;;;;;;5059226;28;20085;-88
2021/12/14 13:50:47;;;;;;;334.80;149.23;;;;;;;;;;5068474;28;20026;-88
2021/12/14 13:53:14;;;;;;;356.75;163.35;;;;;;;;;;5052724;28;20089;-87
2021/12/14 13:55:42;;;;;;;368.10;158.38;;;;;;;;;;5055226;28;20021;-88
2021/12/14 13:58:10;;;;;;;362.65;161.30;;;;;;;;;;5047175;28;20043;-88
2021/12/14 14:00:39;;;;;;;368.80;165.50;;;;;;;;;;5052201;28;20020;-89
2021/12/14 14:03:05;;;;;;;359.88;159.57;;;;;;;;;;5045034;28;20021;-88
2021/12/14 14:05:32;;;;;;;379.98;177.52;;;;;;;;;;5057029;28;20066;-89
2021/12/14 14:08:00;;;;;;;366.52;166.43;;;;;;;;;;5048701;28;20399;-89
2021/12/14 14:10:27;;;;;;;358.08;160.82;;;;;;;;;;5064326;28;20021;-89
2021/12/14 14:12:56;;;;;;;353.98;156.73;;;;;;;;;;5055469;28;20041;-88
2021/12/14 14:15:25;;;;;;;330.33;151.93;;;;;;;;;;5052031;28;20025;-89
2021/12/14 14:17:54;;;;;;;343.17;151.23;;;;;;;;;;5052738;28;20113;-88
2021/12/14 14:20:28;;;;;;;350.60;155.13;;;;;;;;;;5049924;28;20486;-88
2021/12/14 14:23:05;;;;;;;335.42;151.35;;;;;;;;;;5059025;28;20021;-88
2021/12/14 14:25:32;;;;;;;333.27;152.15;;;;;;;;;;5054512;28;20067;-87
2021/12/14 14:28:00;;;;;;;335.52;154.88;;;;;;;;;;5051933;28;20108;-87
2021/12/14 14:30:46;;;;;;;335.27;151.77;;;;;;;;;;5050774;28;20017;-87
2021/12/14 14:33:22;;;;;;;336.65;154.85;;;;;;;;;;5057504;28;20021;-86
2021/12/14 14:35:57;;;;;;;338.60;150.50;;;;;;;;;;5065251;28;20030;-87
2021/12/14 14:38:26;;;;;;;373.83;160.77;;;;;;;;;;5039673;28;20023;-86
2021/12/14 14:40:58;;;;;;;340.77;158.85;;;;;;;;;;5049443;28;20083;-86
2021/12/14 14:43:43;;;;;;;337.17;154.68;;;;;;;;;;5050698;28;20028;-86
2021/12/14 14:46:09;;;;;;;331.58;153.68;;;;;;;;;;5051892;28;20083;-86
2021/12/14 14:48:35;;;;;;;355.48;162.27;;;;;;;;;;5064906;28;20020;-86
2021/12/14 14:51:02;;;;;;;351.90;161.75;;;;;;;;;;5057197;28;20017;-86
2021/12/14 14:53:36;;;;;;;339.63;154.25;;;;;;;;;;5051754;28;20016;-87
2021/12/14 14:56:02;;;;;;;334.58;151.93;;;;;;;;;;5051934;28;20055;-86
2021/12/14 14:58:30;;;;;;;331.45;147.52;;;;;;;;;;5051505;28;20124;-87
2021/12/14 15:01:02;;;;;;;333.17;145.20;;;;;;;;;;5052174;28;20059;-86
2021/12/14 15:03:37;;;;;;;323.83;146.00;;;;;;;;;;5054717;28;20032;-87